HESH Airport Information

Runway Information
Runway 04L Length 10108 ft width 148 ft
Elevation 134 ft Threshold 0 ft Heading 43
Runway 22R Length 10108 ft Width 148 ft
Elevation 119 ft Threshold 0 ft Heading 223
Runway 04R Length 10108 ft width 148 ft
Elevation 114 ft Threshold 0 ft Heading 43
Runway 22L Length 10108 ft Width 148 ft
Elevation 117 ft Threshold 0 ft Heading 223
Airport Frequencies
Type APP Name RADAR Frequency 121.1 MHZ
Type GND Name GND Frequency 121.9 MHZ
Type RDO Name RDO Frequency 317.5 MHZ
Type TWR Name TWR Frequency 118.9 MHZ
Airport Navaids
Type VOR-DME Name Sharm El Sheikh Frequency 114200 KHZ
Type NDB Name Sharm El Sheikh Frequency 335 KHZ
Airport Weather Information & NOTAM
ADDS - METARS form results

(0801 UTC 01 June 2020)
Data provider http://aviationweather.gov/metar/data/
 
Forecast for: HESH (SHARM EL SHEIKHI, EG)
Text: TAF HESH 010500Z 0106/0212 35015KT CAVOK
Forecast period: 0600 UTC 01 June 2020 to 1200 UTC 02 June 2020
Forecast type: FROM: standard forecast or significant change
Winds: from the N (350 degrees) at 17 MPH (15 knots; 7.7 m/s)
Visibility: 6 or more miles 10+ km)
Ceiling: unknown
Clouds: missing
Weather: NSW  (no significant weather)